createdAt,value
2023-04-10T00:01:09.456Z,54.80
2023-04-10T00:03:43.699Z,54.90
2023-04-10T00:06:18.015Z,53.80
2023-04-10T00:08:52.122Z,51.10
2023-04-10T00:11:26.438Z,47.20
2023-04-10T00:14:01.327Z,46.20
2023-04-10T00:16:35.847Z,47.30
2023-04-10T00:19:10.090Z,50.60
2023-04-10T00:21:44.325Z,49.30
2023-04-10T00:24:18.519Z,47.20
2023-04-10T00:26:52.565Z,49.10
2023-04-10T00:29:26.658Z,49.50
2023-04-10T00:32:00.764Z,47.90
2023-04-10T00:34:34.872Z,48.00
2023-04-10T00:37:09.050Z,48.40
2023-04-10T00:39:43.083Z,48.70
2023-04-10T00:42:17.186Z,46.50
2023-04-10T00:44:51.198Z,51.50
2023-04-10T00:47:27.208Z,47.80
2023-04-10T00:50:01.651Z,53.70
2023-04-10T00:52:37.821Z,48.30
2023-04-10T00:55:15.992Z,46.50
2023-04-10T00:57:50.865Z,46.90
2023-04-10T01:00:26.060Z,50.20
2023-04-10T01:03:01.693Z,54.10
2023-04-10T01:05:44.373Z,50.00
2023-04-10T01:08:30.437Z,53.00
2023-04-10T01:11:14.690Z,52.70
2023-04-10T01:13:59.889Z,54.70
2023-04-10T01:16:43.531Z,55.10
2023-04-10T01:19:32.465Z,54.70
2023-04-10T01:22:12.015Z,51.60
2023-04-10T01:25:06.269Z,51.70
2023-04-10T01:29:27.934Z,61.90
2023-04-10T01:32:10.495Z,57.00
2023-04-10T01:34:49.142Z,51.00
2023-04-10T01:37:29.285Z,55.00
2023-04-10T01:40:07.780Z,55.70
2023-04-10T01:42:53.352Z,56.30
2023-04-10T01:45:33.747Z,55.00
2023-04-10T01:48:08.893Z,52.40
2023-04-10T01:50:44.896Z,49.40
2023-04-10T01:53:19.888Z,49.20
2023-04-10T01:55:55.556Z,56.10
2023-04-10T01:58:29.782Z,53.60
2023-04-10T02:01:04.531Z,55.10
2023-04-10T02:03:39.147Z,51.50
2023-04-10T02:06:23.818Z,48.10
2023-04-10T02:09:11.624Z,48.70
2023-04-10T02:11:53.239Z,55.90
2023-04-10T02:14:33.044Z,53.30
2023-04-10T02:17:09.817Z,52.30
2023-04-10T02:19:48.312Z,54.60
2023-04-10T02:22:23.247Z,60.00
2023-04-10T02:24:58.389Z,59.70
2023-04-10T02:27:37.810Z,63.50
2023-04-10T02:30:14.225Z,60.60
2023-04-10T02:32:48.627Z,57.80
2023-04-10T02:35:24.709Z,56.70
2023-04-10T02:37:58.725Z,58.00
2023-04-10T02:40:33.113Z,59.80
2023-04-10T02:43:17.160Z,58.70
2023-04-10T02:45:51.518Z,52.30
2023-04-10T02:48:32.064Z,51.50
2023-04-10T02:51:10.621Z,49.20
2023-04-10T02:53:44.713Z,52.70
2023-04-10T02:56:23.074Z,49.80
2023-04-10T02:58:57.238Z,48.20
2023-04-10T03:01:32.159Z,49.90
2023-04-10T03:04:07.087Z,50.50
2023-04-10T03:06:44.671Z,51.90
2023-04-10T03:09:18.745Z,51.10
2023-04-10T03:11:53.306Z,53.70
2023-04-10T03:14:27.534Z,48.50
2023-04-10T03:17:01.897Z,50.60
2023-04-10T03:19:36.140Z,51.40
2023-04-10T03:22:10.906Z,57.40
2023-04-10T03:24:45.870Z,58.90
2023-04-10T03:27:20.842Z,58.90
2023-04-10T03:29:54.893Z,57.00
2023-04-10T03:32:31.299Z,55.80
2023-04-10T03:35:05.596Z,60.90
2023-04-10T03:37:39.783Z,60.80
2023-04-10T03:40:15.433Z,55.10
2023-04-10T03:42:49.501Z,60.70
2023-04-10T03:45:23.856Z,57.60
2023-04-10T03:47:58.299Z,56.10
2023-04-10T03:50:32.598Z,57.40
2023-04-10T03:53:07.015Z,53.70
2023-04-10T03:55:42.145Z,61.60
2023-04-10T03:58:16.603Z,60.30
2023-04-10T04:00:51.033Z,56.30
2023-04-10T04:03:31.390Z,55.20
2023-04-10T04:06:35.119Z,59.60
2023-04-10T04:09:32.279Z,54.30
2023-04-10T04:12:25.213Z,59.80
2023-04-10T04:15:25.774Z,63.90
2023-04-10T04:18:13.664Z,61.60
2023-04-10T04:20:52.718Z,58.20
2023-04-10T04:23:44.288Z,60.30
2023-04-10T04:26:35.537Z,61.20
2023-04-10T04:29:25.967Z,63.50
2023-04-10T04:32:20.869Z,53.40
2023-04-10T04:35:20.971Z,50.80
2023-04-10T04:38:16.874Z,50.80
2023-04-10T04:41:11.675Z,49.30
2023-04-10T04:44:02.436Z,52.00
2023-04-10T04:47:11.921Z,49.50
2023-04-10T04:50:01.049Z,44.10
2023-04-10T04:52:53.642Z,43.60
2023-04-10T04:55:34.385Z,44.60
2023-04-10T04:58:37.747Z,32.70
2023-04-10T05:01:21.999Z,44.10
2023-04-10T05:04:18.407Z,45.20
2023-04-10T05:07:06.380Z,40.90
2023-04-10T05:10:00.802Z,38.50
2023-04-10T05:13:10.488Z,41.70
2023-04-10T05:16:08.828Z,43.30
2023-04-10T05:18:49.131Z,37.90
2023-04-10T05:21:41.264Z,39.00
2023-04-10T05:24:39.223Z,38.00
2023-04-10T05:27:42.311Z,39.50
2023-04-10T05:30:42.427Z,38.10
2023-04-10T05:33:39.347Z,39.50
2023-04-10T05:36:31.835Z,38.10
2023-04-10T05:39:26.221Z,36.80
2023-04-10T05:42:20.375Z,38.50
2023-04-10T05:45:00.159Z,37.90
2023-04-10T05:48:01.786Z,38.60
2023-04-10T05:50:49.368Z,37.70
2023-04-10T05:53:43.657Z,36.70
2023-04-10T05:56:36.182Z,36.60
2023-04-10T05:59:36.427Z,34.70
2023-04-10T06:02:24.988Z,35.80
2023-04-10T06:04:59.411Z,35.20
2023-04-10T06:07:33.892Z,34.50
2023-04-10T06:10:11.352Z,33.80
2023-04-10T06:12:45.699Z,36.50
2023-04-10T06:15:21.181Z,35.80
2023-04-10T06:17:55.753Z,38.10
2023-04-10T06:20:29.996Z,33.70
2023-04-10T06:23:04.671Z,33.00
2023-04-10T06:25:39.197Z,38.00
2023-04-10T06:28:13.648Z,31.00
2023-04-10T06:30:49.234Z,36.60
2023-04-10T06:33:26.179Z,37.30
2023-04-10T06:36:01.733Z,32.50
2023-04-10T06:38:38.011Z,28.50
2023-04-10T06:41:13.103Z,29.40
2023-04-10T06:43:47.435Z,31.20
2023-04-10T06:46:21.695Z,29.80
2023-04-10T06:48:56.323Z,34.10
2023-04-10T06:51:31.666Z,27.70
2023-04-10T06:54:05.918Z,31.10
2023-04-10T06:56:40.157Z,31.10
2023-04-10T06:59:14.407Z,35.70
2023-04-10T07:01:48.479Z,36.70
2023-04-10T07:04:22.529Z,32.40
2023-04-10T07:06:56.641Z,32.70
2023-04-10T07:09:31.959Z,32.60
2023-04-10T07:12:06.571Z,33.70
2023-04-10T07:14:41.428Z,34.00
2023-04-10T07:17:15.674Z,34.70
2023-04-10T07:19:49.815Z,36.80
2023-04-10T07:22:24.042Z,32.10
2023-04-10T07:24:59.222Z,29.60
2023-04-10T07:27:33.325Z,29.30
2023-04-10T07:30:11.719Z,29.70
2023-04-10T07:32:47.500Z,27.20
2023-04-10T07:35:22.263Z,33.10
2023-04-10T07:37:56.388Z,35.10
2023-04-10T07:40:30.548Z,35.60
2023-04-10T07:43:04.682Z,33.00
2023-04-10T07:45:39.434Z,33.10
2023-04-10T07:48:13.787Z,33.20
2023-04-10T07:50:48.124Z,35.80
2023-04-10T07:53:22.235Z,32.90
2023-04-10T07:55:56.534Z,31.60
2023-04-10T07:58:31.204Z,35.60
2023-04-10T08:01:05.805Z,33.20
2023-04-10T08:03:45.665Z,36.70
2023-04-10T08:06:19.927Z,35.60
2023-04-10T08:08:54.415Z,36.80
2023-04-10T08:11:31.888Z,35.60
2023-04-10T08:14:07.496Z,37.50
2023-04-10T08:16:41.685Z,38.60
2023-04-10T08:19:15.902Z,36.60
2023-04-10T08:21:50.222Z,36.60
2023-04-10T08:24:24.324Z,36.70
2023-04-10T08:26:58.581Z,39.50
2023-04-10T08:29:32.695Z,39.40
2023-04-10T08:32:07.651Z,39.00
2023-04-10T08:34:41.836Z,38.80
2023-04-10T08:37:16.176Z,36.60
2023-04-10T08:39:50.306Z,36.80
2023-04-10T08:42:25.420Z,35.70
2023-04-10T08:44:59.750Z,36.30
2023-04-10T08:47:42.445Z,37.60
2023-04-10T08:50:19.311Z,39.50
2023-04-10T08:52:59.699Z,37.50
2023-04-10T08:55:34.195Z,36.50
2023-04-10T08:58:11.437Z,36.40
2023-04-10T09:00:45.716Z,36.70
2023-04-10T09:03:21.162Z,35.40
2023-04-10T09:05:56.019Z,35.10
2023-04-10T09:08:30.432Z,34.90
2023-04-10T09:11:04.602Z,37.80
2023-04-10T09:13:46.472Z,39.80
2023-04-10T09:16:29.581Z,38.30
2023-04-10T09:19:06.499Z,35.30
2023-04-10T09:21:51.292Z,34.60
2023-04-10T09:24:26.150Z,32.30
2023-04-10T09:27:00.437Z,36.20
2023-04-10T09:29:45.820Z,35.20
2023-04-10T09:32:44.584Z,36.80
2023-04-10T09:35:20.705Z,39.10
2023-04-10T09:37:54.912Z,35.60
2023-04-10T09:40:29.602Z,35.70
2023-04-10T09:43:20.010Z,36.10
2023-04-10T09:45:57.177Z,35.60
2023-04-10T09:48:31.529Z,37.80
2023-04-10T09:51:06.165Z,34.20
2023-04-10T09:53:53.518Z,30.40
2023-04-10T09:56:29.046Z,34.80
2023-04-10T09:59:05.160Z,35.10
2023-04-10T10:01:41.268Z,33.80
2023-04-10T10:04:18.550Z,32.10
2023-04-10T10:06:53.173Z,35.50
2023-04-10T10:09:29.424Z,35.00
2023-04-10T10:12:06.881Z,32.50
2023-04-10T10:14:48.187Z,33.70
2023-04-10T10:17:29.355Z,33.00
2023-04-10T10:20:09.960Z,26.00
2023-04-10T10:22:46.042Z,26.50
2023-04-10T10:25:21.987Z,30.70
2023-04-10T10:27:57.317Z,28.30
2023-04-10T10:30:32.425Z,29.40
2023-04-10T10:33:09.627Z,27.60
2023-04-10T10:35:45.463Z,24.80
2023-04-10T10:38:21.739Z,28.70
2023-04-10T10:41:07.843Z,25.20
2023-04-10T10:43:55.147Z,30.60
2023-04-10T10:46:42.448Z,28.30
2023-04-10T10:49:16.692Z,28.40
2023-04-10T10:51:55.051Z,25.90
2023-04-10T10:54:47.232Z,27.20
2023-04-10T10:57:52.073Z,23.80
2023-04-10T11:00:28.770Z,24.60
2023-04-10T11:03:31.540Z,25.60
2023-04-10T11:06:08.484Z,24.20
2023-04-10T11:08:48.788Z,25.50
2023-04-10T11:11:24.727Z,24.50
2023-04-10T11:14:20.487Z,28.60
2023-04-10T11:16:54.870Z,24.80
2023-04-10T11:19:29.114Z,28.10
2023-04-10T11:22:09.548Z,26.50
2023-04-10T11:25:10.552Z,24.50
2023-04-10T11:27:53.121Z,24.80
2023-04-10T11:30:43.888Z,27.40
2023-04-10T11:33:22.853Z,25.50
2023-04-10T11:35:58.820Z,26.00
2023-04-10T11:38:33.389Z,26.50
2023-04-10T11:41:09.472Z,25.80
2023-04-10T11:43:43.982Z,26.00
2023-04-10T11:46:19.331Z,26.70
2023-04-10T11:49:00.444Z,23.20
2023-04-10T11:51:35.826Z,22.50
2023-04-10T11:54:18.778Z,22.30
2023-04-10T11:57:07.206Z,23.20
2023-04-10T11:59:41.757Z,22.70
2023-04-10T12:02:17.706Z,24.10
2023-04-10T12:05:02.496Z,19.10
2023-04-10T12:07:37.476Z,16.70
2023-04-10T12:10:14.080Z,19.60
2023-04-10T12:12:48.376Z,23.10
2023-04-10T12:15:35.598Z,18.40
2023-04-10T12:18:11.767Z,18.10
2023-04-10T12:20:47.240Z,17.90
2023-04-10T12:23:23.372Z,20.80
2023-04-10T12:26:10.833Z,17.30
2023-04-10T12:28:54.881Z,17.00
2023-04-10T12:31:37.629Z,18.00
2023-04-10T12:34:12.069Z,17.30
2023-04-10T12:36:55.285Z,16.90
2023-04-10T12:39:30.114Z,19.30
2023-04-10T12:42:19.441Z,16.40
2023-04-10T12:44:59.842Z,17.50
2023-04-10T12:47:44.368Z,15.50
2023-04-10T12:50:22.159Z,17.00
2023-04-10T12:53:11.646Z,13.70
2023-04-10T12:56:00.298Z,14.30
2023-04-10T12:58:35.052Z,14.20
2023-04-10T13:01:14.345Z,14.60
2023-04-10T13:03:50.386Z,13.30
2023-04-10T13:06:24.503Z,13.10
2023-04-10T13:08:58.620Z,12.10
2023-04-10T13:11:32.631Z,13.60
2023-04-10T13:14:06.840Z,14.10
2023-04-10T13:16:41.228Z,15.20
2023-04-10T13:19:15.419Z,16.50
2023-04-10T13:21:50.804Z,15.50
2023-04-10T13:24:24.974Z,13.50
2023-04-10T13:26:59.535Z,16.60
2023-04-10T13:29:33.584Z,15.60
2023-04-10T13:32:08.017Z,16.00
2023-04-10T13:34:42.145Z,16.60
2023-04-10T13:37:16.959Z,16.10
2023-04-10T13:39:51.273Z,17.40
2023-04-10T13:42:25.439Z,17.10
2023-04-10T13:44:59.497Z,18.30
2023-04-10T13:47:33.683Z,18.90
2023-04-10T13:50:09.298Z,20.70
2023-04-10T13:52:44.911Z,22.00
2023-04-10T13:55:19.405Z,19.30
2023-04-10T13:57:54.007Z,21.20
2023-04-10T14:00:28.608Z,19.10
2023-04-10T14:03:03.287Z,18.80
2023-04-10T14:05:38.768Z,18.50
2023-04-10T14:08:15.885Z,17.30
2023-04-10T14:10:51.593Z,16.30
2023-04-10T14:13:25.939Z,18.60
2023-04-10T14:16:01.439Z,16.80
2023-04-10T14:18:35.648Z,17.00
2023-04-10T14:21:10.358Z,15.00
2023-04-10T14:23:45.540Z,14.80
2023-04-10T14:26:19.810Z,14.10
2023-04-10T14:28:54.149Z,17.00
2023-04-10T14:31:29.681Z,15.70
2023-04-10T14:34:04.083Z,15.70
2023-04-10T14:36:38.367Z,14.00
2023-04-10T14:39:12.502Z,16.00
2023-04-10T14:41:46.776Z,13.80
2023-04-10T14:44:21.210Z,14.70
2023-04-10T14:46:55.420Z,15.70
2023-04-10T14:49:29.978Z,13.20
2023-04-10T14:52:04.416Z,13.30
2023-04-10T14:54:38.828Z,14.50
2023-04-10T14:57:13.929Z,15.50
2023-04-10T14:59:48.117Z,15.60
2023-04-10T15:02:22.273Z,15.30
2023-04-10T15:04:56.682Z,16.10
2023-04-10T15:07:30.866Z,15.00
2023-04-10T15:10:05.349Z,15.50
2023-04-10T15:12:39.881Z,15.40
2023-04-10T15:15:15.507Z,14.60
2023-04-10T15:17:49.716Z,16.50
2023-04-10T15:20:24.128Z,15.70
2023-04-10T15:22:58.655Z,12.30
2023-04-10T15:25:33.513Z,14.70
2023-04-10T15:28:08.383Z,13.80
2023-04-10T15:30:46.041Z,13.00
2023-04-10T15:33:21.935Z,13.40
2023-04-10T15:35:56.307Z,13.50
2023-04-10T15:38:30.717Z,13.40
2023-04-10T15:41:08.972Z,13.60
2023-04-10T15:43:43.587Z,12.10
2023-04-10T15:46:19.323Z,11.40
2023-04-10T15:48:53.709Z,13.00
2023-04-10T15:51:28.472Z,12.10
2023-04-10T15:54:05.246Z,12.30
2023-04-10T15:56:40.921Z,12.40
2023-04-10T15:59:15.072Z,14.10
2023-04-10T16:01:49.271Z,11.40
2023-04-10T16:04:23.792Z,12.20
2023-04-10T16:06:58.113Z,12.30
2023-04-10T16:09:33.160Z,11.70
2023-04-10T16:12:07.823Z,11.80
2023-04-10T16:14:42.402Z,12.30
2023-04-10T16:17:17.039Z,11.70
2023-04-10T16:19:51.526Z,13.70
2023-04-10T16:22:27.359Z,13.40
2023-04-10T16:27:42.263Z,12.30
2023-04-10T16:30:18.478Z,13.20
2023-04-10T16:32:52.899Z,14.90
2023-04-10T16:35:27.300Z,11.40
2023-04-10T16:38:01.982Z,12.30
2023-04-10T16:40:36.219Z,14.70
2023-04-10T16:43:11.270Z,13.70
2023-04-10T16:45:45.501Z,14.10
2023-04-10T16:48:19.610Z,15.30
2023-04-10T16:50:54.306Z,14.90
2023-04-10T16:53:28.652Z,14.80
2023-04-10T16:56:05.203Z,15.70
2023-04-10T16:58:41.226Z,16.40
2023-04-10T17:01:25.113Z,16.10
2023-04-10T17:03:59.794Z,18.10
2023-04-10T17:06:33.993Z,17.00
2023-04-10T17:09:08.727Z,17.30
2023-04-10T17:11:43.470Z,19.20
2023-04-10T17:14:19.106Z,19.30
2023-04-10T17:16:53.690Z,20.00
2023-04-10T17:19:28.269Z,22.40
2023-04-10T17:22:02.490Z,27.90
2023-04-10T17:24:36.635Z,34.70
2023-04-10T17:27:10.970Z,38.10
2023-04-10T17:29:45.326Z,34.60
2023-04-10T17:32:19.775Z,36.40
2023-04-10T17:34:53.909Z,40.00
2023-04-10T17:37:28.212Z,39.90
2023-04-10T17:40:02.953Z,36.60
2023-04-10T17:42:37.220Z,34.70
2023-04-10T17:45:13.999Z,32.50
2023-04-10T17:47:49.561Z,29.90
2023-04-10T17:50:24.060Z,33.10
2023-04-10T17:52:58.551Z,32.90
2023-04-10T17:55:32.724Z,36.20
2023-04-10T17:58:07.224Z,34.50
2023-04-10T18:00:43.931Z,37.40
2023-04-10T18:03:18.562Z,33.40
2023-04-10T18:05:52.811Z,35.30
2023-04-10T18:08:27.527Z,35.20
2023-04-10T18:11:02.019Z,32.60
2023-04-10T18:13:39.001Z,30.50
2023-04-10T18:16:16.152Z,30.10
2023-04-10T18:18:50.666Z,25.60
2023-04-10T18:21:27.240Z,28.00
2023-04-10T18:24:01.722Z,30.90
2023-04-10T18:26:36.449Z,34.00
2023-04-10T18:29:11.414Z,33.90
2023-04-10T18:31:45.894Z,32.50
2023-04-10T18:34:20.573Z,32.30
2023-04-10T18:36:55.793Z,29.10
2023-04-10T18:39:30.639Z,27.30
2023-04-10T18:42:09.034Z,29.40
2023-04-10T18:44:43.534Z,27.80
2023-04-10T18:47:19.195Z,24.50
2023-04-10T18:49:55.756Z,26.00
2023-04-10T18:52:30.769Z,68.20
2023-04-10T18:55:06.100Z,121.60
2023-04-10T18:57:40.894Z,95.90
2023-04-10T19:00:18.751Z,84.00
2023-04-10T19:02:54.817Z,84.20
2023-04-10T19:05:32.648Z,89.10
2023-04-10T19:08:08.012Z,109.20
2023-04-10T19:10:44.051Z,81.90
2023-04-10T19:13:19.037Z,111.30
2023-04-10T19:15:57.665Z,114.00
2023-04-10T19:18:33.104Z,94.40
2023-04-10T19:21:09.234Z,80.90
2023-04-10T19:23:43.628Z,81.80
2023-04-10T19:26:20.808Z,79.30
2023-04-10T19:28:55.961Z,90.60
2023-04-10T19:31:31.108Z,86.20
2023-04-10T19:34:09.577Z,83.00
2023-04-10T19:36:44.185Z,85.80
2023-04-10T19:39:18.684Z,77.30
2023-04-10T19:41:53.279Z,74.70
2023-04-10T19:44:27.952Z,74.90
2023-04-10T19:47:02.521Z,76.20
2023-04-10T19:49:38.058Z,76.00
2023-04-10T19:52:14.058Z,80.80
2023-04-10T19:54:48.967Z,78.00
2023-04-10T19:57:25.263Z,73.50
2023-04-10T20:00:00.420Z,72.50
2023-04-10T20:02:35.171Z,74.90
2023-04-10T20:05:12.825Z,74.50
2023-04-10T20:07:47.411Z,68.50
2023-04-10T20:10:22.617Z,68.80
2023-04-10T20:12:57.544Z,72.00
2023-04-10T20:15:32.028Z,70.90
2023-04-10T20:18:06.750Z,64.00
2023-04-10T20:20:43.577Z,66.70
2023-04-10T20:23:18.145Z,66.80
2023-04-10T20:25:52.534Z,62.90
2023-04-10T20:28:26.797Z,70.40
2023-04-10T20:31:01.460Z,87.20
2023-04-10T20:33:36.037Z,100.40
2023-04-10T20:36:13.270Z,115.70
2023-04-10T20:38:47.631Z,135.00
2023-04-10T20:41:21.865Z,122.10
2023-04-10T20:43:57.640Z,135.50
2023-04-10T20:46:32.087Z,141.10
2023-04-10T20:49:06.696Z,157.20
2023-04-10T20:51:41.382Z,143.90
2023-04-10T20:54:15.840Z,138.50
2023-04-10T20:56:50.163Z,133.30
2023-04-10T20:59:24.348Z,119.90
2023-04-10T21:01:59.276Z,111.50
2023-04-10T21:04:33.975Z,97.90
2023-04-10T21:07:08.336Z,102.20
2023-04-10T21:09:42.793Z,97.30
2023-04-10T21:12:17.343Z,94.30
2023-04-10T21:14:51.926Z,98.70
2023-04-10T21:17:31.334Z,98.10
2023-04-10T21:20:06.314Z,86.20
2023-04-10T21:22:40.480Z,80.30
2023-04-10T21:25:16.016Z,81.00
2023-04-10T21:27:50.069Z,87.00
2023-04-10T21:30:24.642Z,80.70
2023-04-10T21:32:58.780Z,73.90
2023-04-10T21:35:32.957Z,76.50
2023-04-10T21:38:07.170Z,79.70
2023-04-10T21:40:41.765Z,71.60
2023-04-10T21:43:16.251Z,77.50
2023-04-10T21:45:50.752Z,82.10
2023-04-10T21:48:24.986Z,79.60
2023-04-10T21:50:59.437Z,66.50
2023-04-10T21:53:33.573Z,68.00
2023-04-10T21:56:08.571Z,63.90
2023-04-10T21:58:42.941Z,59.50
2023-04-10T22:01:17.093Z,56.60
2023-04-10T22:03:52.024Z,54.90
2023-04-10T22:06:26.827Z,54.30
2023-04-10T22:09:00.927Z,52.00
2023-04-10T22:11:37.262Z,55.00
2023-04-10T22:14:17.082Z,48.10
2023-04-10T22:16:52.353Z,56.40
2023-04-10T22:19:26.508Z,54.20
2023-04-10T22:22:00.568Z,50.50
2023-04-10T22:24:36.126Z,51.60
2023-04-10T22:27:11.024Z,51.80
2023-04-10T22:29:50.160Z,51.40
2023-04-10T22:32:31.045Z,63.90
2023-04-10T22:35:05.806Z,60.60
2023-04-10T22:37:40.507Z,61.10
2023-04-10T22:40:15.929Z,65.20
2023-04-10T22:42:50.493Z,62.70
2023-04-10T22:45:25.154Z,59.00
2023-04-10T22:47:59.495Z,58.10
2023-04-10T22:50:35.546Z,55.50
2023-04-10T22:53:10.698Z,54.50
2023-04-10T22:55:45.476Z,54.30
2023-04-10T22:58:19.605Z,53.50
2023-04-10T23:00:54.101Z,56.70
2023-04-10T23:03:28.702Z,54.60
2023-04-10T23:06:03.126Z,56.20
2023-04-10T23:08:37.854Z,54.60
2023-04-10T23:11:12.275Z,51.90
2023-04-10T23:13:47.230Z,44.60
2023-04-10T23:16:21.339Z,45.30
2023-04-10T23:18:55.767Z,51.40
2023-04-10T23:21:30.043Z,51.50
2023-04-10T23:24:04.187Z,61.40
2023-04-10T23:26:38.409Z,54.70
2023-04-10T23:29:12.849Z,53.80
2023-04-10T23:31:46.930Z,53.20
2023-04-10T23:34:21.269Z,60.60
2023-04-10T23:36:55.838Z,72.70
2023-04-10T23:39:29.928Z,54.10
2023-04-10T23:42:04.141Z,52.50
2023-04-10T23:44:38.423Z,52.70
2023-04-10T23:47:12.590Z,49.30
2023-04-10T23:49:46.583Z,57.70
2023-04-10T23:52:20.803Z,59.40
2023-04-10T23:54:56.411Z,58.50
2023-04-10T23:57:30.877Z,49.70
